createdAt,value
2018-08-22T00:02:28.610Z,95245.58
2018-08-22T00:04:57.833Z,95249.32
2018-08-22T00:07:27.079Z,95244.56
2018-08-22T00:09:56.299Z,95248.08
2018-08-22T00:12:25.532Z,95244.17
2018-08-22T00:14:54.759Z,95247.75
2018-08-22T00:17:24.002Z,95239.88
2018-08-22T00:19:53.254Z,95242.53
2018-08-22T00:22:22.533Z,95246.77
2018-08-22T00:24:51.758Z,95237.17
2018-08-22T00:27:21.042Z,95239.75
2018-08-22T00:30:03.386Z,95240.38
2018-08-22T00:32:32.916Z,95239.82
2018-08-22T00:35:02.374Z,95240.66
2018-08-22T00:37:31.776Z,95237.07
2018-08-22T00:40:01.166Z,95227.70
2018-08-22T00:42:30.589Z,95235.58
2018-08-22T00:45:00.119Z,95237.89
2018-08-22T00:47:30.616Z,95236.08
2018-08-22T00:50:00.032Z,95239.98
2018-08-22T00:52:29.406Z,95232.45
2018-08-22T00:54:58.834Z,95232.17
2018-08-22T00:57:28.241Z,95232.94
2018-08-22T00:59:57.606Z,95228.36
2018-08-22T01:02:26.995Z,95230.01
2018-08-22T01:04:56.331Z,95229.66
2018-08-22T01:07:25.660Z,95229.21
2018-08-22T01:09:54.977Z,95221.52
2018-08-22T01:12:24.350Z,95228.54
2018-08-22T01:14:53.646Z,95229.89
2018-08-22T01:17:23.020Z,95225.69
2018-08-22T01:19:52.352Z,95226.95
2018-08-22T01:22:21.748Z,95224.86
2018-08-22T01:24:51.141Z,95222.90
2018-08-22T01:27:21.426Z,95219.08
2018-08-22T01:29:52.710Z,95217.40
2018-08-22T01:32:22.691Z,95217.01
2018-08-22T01:34:52.959Z,95220.11
2018-08-22T01:37:23.233Z,95221.98
2018-08-22T01:39:52.578Z,95217.02
2018-08-22T01:42:21.892Z,95211.16
2018-08-22T01:44:51.233Z,95210.75
2018-08-22T01:47:20.592Z,95205.27
2018-08-22T01:49:49.938Z,95215.25
2018-08-22T01:52:19.310Z,95210.22
2018-08-22T01:54:48.754Z,95207.45
2018-08-22T01:57:18.078Z,95201.00
2018-08-22T01:59:47.447Z,95212.00
2018-08-22T02:02:16.814Z,95207.09
2018-08-22T02:04:46.171Z,95206.53
2018-08-22T02:07:15.519Z,95210.11
2018-08-22T02:09:44.912Z,95203.24
2018-08-22T02:12:14.267Z,95206.91
2018-08-22T02:14:43.635Z,95217.21
2018-08-22T02:17:13.244Z,95213.80
2018-08-22T02:19:42.647Z,95212.97
2018-08-22T02:22:11.991Z,95212.55
2018-08-22T02:24:41.370Z,95209.59
2018-08-22T02:27:10.734Z,95212.30
2018-08-22T02:29:40.088Z,95210.73
2018-08-22T02:32:09.463Z,95211.36
2018-08-22T02:34:38.888Z,95205.51
2018-08-22T02:37:09.352Z,95205.28
2018-08-22T02:39:38.687Z,95201.92
2018-08-22T02:42:08.015Z,95198.66
2018-08-22T02:44:37.359Z,95202.05
2018-08-22T02:47:07.046Z,95201.22
2018-08-22T02:49:36.366Z,95196.52
2018-08-22T02:52:05.735Z,95195.62
2018-08-22T02:54:35.076Z,95193.19
2018-08-22T02:57:04.412Z,95192.53
2018-08-22T02:59:33.725Z,95191.00
2018-08-22T03:02:03.092Z,95189.64
2018-08-22T03:04:32.430Z,95192.77
2018-08-22T03:07:01.726Z,95191.56
2018-08-22T03:09:31.112Z,95183.53
2018-08-22T03:12:00.498Z,95184.70
2018-08-22T03:14:29.883Z,95192.69
2018-08-22T03:16:59.296Z,95193.30
2018-08-22T03:19:28.607Z,95185.72
2018-08-22T03:21:57.987Z,95189.59
2018-08-22T03:24:27.303Z,95188.77
2018-08-22T03:26:56.594Z,95188.34
2018-08-22T03:29:25.911Z,95086.00
2018-08-22T03:31:55.243Z,95189.34
2018-08-22T03:34:24.615Z,95187.66
2018-08-22T03:41:52.388Z,95190.17
2018-08-22T03:44:21.619Z,95186.46
2018-08-22T03:46:51.759Z,95194.25
2018-08-22T03:49:20.990Z,95190.30
2018-08-22T03:51:50.223Z,95191.19
2018-08-22T03:54:19.506Z,95194.47
2018-08-22T03:56:48.746Z,95187.68
2018-08-22T03:59:17.967Z,95195.59
2018-08-22T04:01:47.194Z,95190.02
2018-08-22T04:04:16.431Z,95192.89
2018-08-22T04:06:45.695Z,95193.16
2018-08-22T04:09:14.929Z,95195.36
2018-08-22T04:11:44.182Z,95194.23
2018-08-22T04:14:13.424Z,95193.65
2018-08-22T04:16:42.651Z,95187.79
2018-08-22T04:19:13.756Z,95188.52
2018-08-22T04:21:43.026Z,95191.97
2018-08-22T04:24:12.267Z,95198.87
2018-08-22T04:26:41.510Z,95195.20
2018-08-22T04:29:10.757Z,95196.52
2018-08-22T04:31:40.005Z,95197.47
2018-08-22T04:34:09.244Z,95197.83
2018-08-22T04:36:38.503Z,95207.44
2018-08-22T04:39:09.083Z,95206.58
2018-08-22T04:41:38.319Z,95215.08
2018-08-22T04:44:07.537Z,95207.30
2018-08-22T04:46:36.790Z,95213.77
2018-08-22T04:49:06.033Z,95218.19
2018-08-22T04:51:35.279Z,95212.06
2018-08-22T04:54:04.516Z,95219.32
2018-08-22T04:56:33.752Z,95225.30
2018-08-22T04:59:03.062Z,95216.93
2018-08-22T05:01:32.319Z,95223.73
2018-08-22T05:04:01.543Z,95226.86
2018-08-22T05:06:30.790Z,95234.88
2018-08-22T05:09:00.024Z,95234.11
2018-08-22T05:11:29.266Z,95232.28
2018-08-22T05:13:58.503Z,95229.71
2018-08-22T05:16:27.731Z,95238.64
2018-08-22T05:18:56.984Z,95233.85
2018-08-22T05:21:26.227Z,95230.95
2018-08-22T05:23:55.610Z,95233.20
2018-08-22T05:26:24.867Z,95232.89
2018-08-22T05:28:54.087Z,95231.17
2018-08-22T05:31:23.324Z,95223.07
2018-08-22T05:33:52.564Z,95219.20
2018-08-22T05:36:21.811Z,95218.81
2018-08-22T05:38:51.147Z,95224.20
2018-08-22T05:41:20.376Z,95225.01
2018-08-22T05:43:49.615Z,95219.81
2018-08-22T05:46:18.875Z,95221.04
2018-08-22T05:48:48.102Z,95224.62
2018-08-22T05:51:17.326Z,95225.59
2018-08-22T05:53:46.563Z,95221.34
2018-08-22T05:56:15.794Z,95224.09
2018-08-22T05:58:45.033Z,95224.18
2018-08-22T06:01:14.267Z,95226.15
2018-08-22T06:03:43.503Z,95230.45
2018-08-22T06:06:12.751Z,95228.84
2018-08-22T06:08:42.001Z,95231.50
2018-08-22T06:11:11.215Z,95234.28
2018-08-22T06:13:40.452Z,95238.55
2018-08-22T06:16:09.740Z,95230.80
2018-08-22T06:18:38.963Z,95224.42
2018-08-22T06:21:08.195Z,95221.00
2018-08-22T06:23:37.450Z,95228.95
2018-08-22T06:26:06.788Z,95223.31
2018-08-22T06:28:36.011Z,95223.22
2018-08-22T06:31:05.295Z,95219.66
2018-08-22T06:33:34.540Z,95225.19
2018-08-22T06:36:03.754Z,95230.13
2018-08-22T06:38:33.010Z,95229.41
2018-08-22T06:41:02.236Z,95219.94
2018-08-22T06:43:31.479Z,95227.68
2018-08-22T06:46:00.726Z,95225.08
2018-08-22T06:48:29.983Z,95221.80
2018-08-22T06:50:59.255Z,95223.09
2018-08-22T06:53:28.491Z,95221.19
2018-08-22T06:55:57.716Z,95220.89
2018-08-22T06:58:26.945Z,95222.59
2018-08-22T07:00:56.174Z,95222.31
2018-08-22T07:03:25.427Z,95219.33
2018-08-22T07:05:54.696Z,95219.41
2018-08-22T07:08:23.926Z,95226.55
2018-08-22T07:10:54.405Z,95225.97
2018-08-22T07:13:23.671Z,95223.36
2018-08-22T07:15:52.907Z,95223.91
2018-08-22T07:18:22.150Z,95220.96
2018-08-22T07:20:51.438Z,95222.49
2018-08-22T07:23:20.615Z,95223.73
2018-08-22T07:25:49.856Z,95222.27
2018-08-22T07:28:19.116Z,95220.60
2018-08-22T07:30:48.374Z,95221.41
2018-08-22T07:33:17.617Z,95217.77
2018-08-22T07:35:46.942Z,95217.33
2018-08-22T07:38:16.114Z,95215.95
2018-08-22T07:40:45.350Z,95215.30
2018-08-22T07:43:15.059Z,95215.95
2018-08-22T07:45:44.342Z,95217.97
2018-08-22T07:48:13.816Z,95215.65
2018-08-22T07:50:43.027Z,95218.05
2018-08-22T07:53:12.283Z,95215.71
2018-08-22T07:55:42.737Z,95221.34
2018-08-22T07:58:12.219Z,95219.14
2018-08-22T08:00:41.448Z,95219.03
2018-08-22T08:03:10.699Z,95215.97
2018-08-22T08:05:39.936Z,95218.03
2018-08-22T08:08:10.153Z,95215.52
2018-08-22T08:10:39.406Z,95220.16
2018-08-22T08:13:16.003Z,95216.29
2018-08-22T08:15:45.519Z,95216.44
2018-08-22T08:18:14.730Z,95217.40
2018-08-22T08:20:43.989Z,95220.08
2018-08-22T08:23:13.227Z,95211.97
2018-08-22T08:25:42.449Z,95214.53
2018-08-22T08:28:11.695Z,95210.36
2018-08-22T08:30:40.946Z,95217.70
2018-08-22T08:33:10.151Z,95207.75
2018-08-22T08:35:39.431Z,95208.52
2018-08-22T08:38:08.617Z,95207.91
2018-08-22T08:40:37.864Z,95193.98
2018-08-22T08:43:07.095Z,95192.33
2018-08-22T08:45:36.964Z,95194.69
2018-08-22T08:48:06.195Z,95193.26
2018-08-22T08:50:35.431Z,95187.70
2018-08-22T08:53:04.697Z,95186.71
2018-08-22T08:55:33.938Z,95190.42
2018-08-22T08:58:03.270Z,95184.67
2018-08-22T09:00:32.502Z,95187.56
2018-08-22T09:03:01.728Z,95187.78
2018-08-22T09:05:30.974Z,95184.25
2018-08-22T09:08:00.215Z,95178.34
2018-08-22T09:10:29.447Z,95176.64
2018-08-22T09:12:58.667Z,95178.87
2018-08-22T09:15:27.918Z,95176.37
2018-08-22T09:17:57.155Z,95171.16
2018-08-22T09:20:26.388Z,95179.66
2018-08-22T09:22:55.622Z,95168.54
2018-08-22T09:25:24.839Z,95172.86
2018-08-22T09:27:54.076Z,95172.28
2018-08-22T09:30:23.499Z,95175.85
2018-08-22T09:32:52.735Z,95170.64
2018-08-22T09:35:21.979Z,95168.65
2018-08-22T09:37:51.234Z,95169.66
2018-08-22T09:40:20.465Z,95166.69
2018-08-22T09:42:49.713Z,95164.66
2018-08-22T09:45:18.960Z,95155.70
2018-08-22T09:47:48.222Z,95156.20
2018-08-22T09:50:17.471Z,95157.70
2018-08-22T09:52:47.960Z,95156.84
2018-08-22T09:55:17.214Z,95151.23
2018-08-22T09:57:46.459Z,95149.88
2018-08-22T10:00:22.342Z,95145.20
2018-08-22T10:02:51.591Z,95141.08
2018-08-22T10:05:20.815Z,95138.42
2018-08-22T10:07:50.027Z,95135.36
2018-08-22T10:10:19.272Z,95134.64
2018-08-22T10:12:48.517Z,95143.42
2018-08-22T10:15:17.747Z,95138.22
2018-08-22T10:17:47.126Z,95133.66
2018-08-22T10:20:16.384Z,95133.17
2018-08-22T10:22:45.608Z,95134.44
2018-08-22T10:25:15.004Z,95143.57
2018-08-22T10:27:44.216Z,95129.39
2018-08-22T10:30:13.447Z,95127.13
2018-08-22T10:32:42.742Z,95125.19
2018-08-22T10:35:11.963Z,95130.86
2018-08-22T10:37:41.202Z,95131.88
2018-08-22T10:40:10.443Z,95130.33
2018-08-22T10:42:39.672Z,95123.41
2018-08-22T10:45:08.930Z,95118.72
2018-08-22T10:47:38.154Z,95120.94
2018-08-22T10:50:07.408Z,95110.91
2018-08-22T10:52:36.900Z,95117.58
2018-08-22T10:55:06.131Z,95116.46
2018-08-22T10:57:35.388Z,95113.22
2018-08-22T11:00:04.645Z,95115.73
2018-08-22T11:02:33.899Z,95108.66
2018-08-22T11:05:03.121Z,95111.85
2018-08-22T11:07:33.390Z,95100.87
2018-08-22T11:10:02.648Z,95106.93
2018-08-22T11:12:31.863Z,95099.34
2018-08-22T11:15:01.091Z,95105.03
2018-08-22T11:17:30.346Z,95095.52
2018-08-22T11:19:59.543Z,95096.31
2018-08-22T11:22:45.579Z,95095.09
2018-08-22T11:25:31.691Z,95095.61
2018-08-22T11:28:17.798Z,95090.53
2018-08-22T11:31:04.001Z,95097.06
2018-08-22T11:33:50.220Z,95097.25
2018-08-22T11:36:17.927Z,95087.34
2018-08-22T11:38:47.166Z,95084.21
2018-08-22T11:41:16.403Z,95087.84
2018-08-22T11:43:45.657Z,95094.79
2018-08-22T11:46:14.895Z,95092.27
2018-08-22T11:48:44.134Z,95090.98
2018-08-22T11:51:13.439Z,95084.98
2018-08-22T11:53:43.919Z,95082.40
2018-08-22T11:56:13.180Z,95083.64
2018-08-22T11:58:42.403Z,95086.59
2018-08-22T12:01:11.863Z,95092.75
2018-08-22T12:03:41.096Z,95082.27
2018-08-22T12:06:10.339Z,95082.84
2018-08-22T12:08:39.571Z,95075.39
2018-08-22T12:11:08.819Z,95070.66
2018-08-22T12:13:38.035Z,95078.38
2018-08-22T12:16:07.318Z,95072.56
2018-08-22T12:18:36.557Z,95078.33
2018-08-22T12:21:05.790Z,95068.84
2018-08-22T12:23:35.035Z,95067.74
2018-08-22T12:26:05.945Z,95069.88
2018-08-22T12:28:35.213Z,95066.52
2018-08-22T12:31:04.509Z,95064.58
2018-08-22T12:33:33.720Z,95058.03
2018-08-22T12:36:02.943Z,95061.15
2018-08-22T12:38:32.436Z,95050.73
2018-08-22T12:41:01.659Z,95056.98
2018-08-22T12:43:30.899Z,95052.47
2018-08-22T12:46:00.199Z,95046.67
2018-08-22T12:48:29.431Z,95048.42
2018-08-22T12:50:58.671Z,95043.83
2018-08-22T12:53:28.127Z,95040.42
2018-08-22T12:55:57.387Z,95040.98
2018-08-22T12:58:26.646Z,95043.98
2018-08-22T13:00:55.866Z,95043.67
2018-08-22T13:03:25.115Z,95042.27
2018-08-22T13:05:54.351Z,95039.44
2018-08-22T13:08:23.594Z,95034.29
2018-08-22T13:10:52.832Z,95029.79
2018-08-22T13:13:22.064Z,95019.86
2018-08-22T13:15:51.333Z,95024.72
2018-08-22T13:18:20.570Z,95026.77
2018-08-22T13:20:49.807Z,95024.49
2018-08-22T13:23:19.049Z,95017.78
2018-08-22T13:25:48.307Z,95011.05
2018-08-22T13:28:17.607Z,95013.63
2018-08-22T13:30:47.038Z,95010.17
2018-08-22T13:33:16.279Z,95005.91
2018-08-22T13:35:45.518Z,95006.36
2018-08-22T13:38:14.823Z,95002.50
2018-08-22T13:40:44.067Z,94999.69
2018-08-22T13:43:13.360Z,95003.83
2018-08-22T13:45:42.595Z,95000.67
2018-08-22T13:48:11.831Z,94994.75
2018-08-22T13:50:41.064Z,94992.01
2018-08-22T13:53:10.295Z,94994.80
2018-08-22T13:55:39.602Z,94996.16
2018-08-22T13:58:08.878Z,94994.45
2018-08-22T14:00:38.144Z,94998.73
2018-08-22T14:03:07.379Z,94997.38
2018-08-22T14:05:36.627Z,94998.27
2018-08-22T14:08:05.903Z,95002.61
2018-08-22T14:10:35.308Z,94998.88
2018-08-22T14:13:04.572Z,94994.72
2018-08-22T14:15:33.802Z,94994.33
2018-08-22T14:18:03.101Z,94992.27
2018-08-22T14:20:32.371Z,94988.41
2018-08-22T14:23:01.705Z,94987.77
2018-08-22T14:25:30.960Z,94979.84
2018-08-22T14:28:00.300Z,94981.72
2018-08-22T14:30:30.768Z,94973.95
2018-08-22T14:33:00.023Z,94968.99
2018-08-22T14:35:29.291Z,94978.83
2018-08-22T14:37:58.805Z,94967.97
2018-08-22T14:40:28.078Z,94975.44
2018-08-22T14:42:57.344Z,94975.92
2018-08-22T14:45:26.563Z,94966.94
2018-08-22T14:47:56.072Z,94962.61
2018-08-22T14:50:25.347Z,94964.73
2018-08-22T14:52:54.573Z,94962.27
2018-08-22T14:55:23.810Z,94965.29
2018-08-22T14:57:53.050Z,94958.51
2018-08-22T15:00:22.296Z,94957.56
2018-08-22T15:02:51.686Z,94953.61
2018-08-22T15:05:20.750Z,94951.47
2018-08-22T15:07:49.992Z,94943.23
2018-08-22T15:10:19.501Z,94946.53
2018-08-22T15:12:49.111Z,94941.86
2018-08-22T15:15:18.289Z,94941.41
2018-08-22T15:17:47.529Z,94940.99
2018-08-22T15:20:16.787Z,94936.73
2018-08-22T15:22:46.034Z,94941.56
2018-08-22T15:25:15.258Z,94941.69
2018-08-22T15:27:44.519Z,94933.23
2018-08-22T15:30:13.792Z,94940.58
2018-08-22T15:32:43.033Z,94943.87
2018-08-22T15:35:12.256Z,94936.54
2018-08-22T15:37:41.499Z,94932.97
2018-08-22T15:40:10.730Z,94940.66
2018-08-22T15:42:39.970Z,94939.36
2018-08-22T15:45:09.197Z,94937.73
2018-08-22T15:47:38.505Z,94945.63
2018-08-22T15:50:07.707Z,94944.77
2018-08-22T15:52:36.993Z,94938.91
2018-08-22T15:55:14.289Z,94945.14
2018-08-22T15:58:03.791Z,94942.92
2018-08-22T16:00:56.041Z,94949.34
2018-08-22T16:03:26.884Z,94941.05
2018-08-22T16:05:56.740Z,94936.55
2018-08-22T16:08:27.205Z,94930.08
2018-08-22T16:10:56.454Z,94937.92
2018-08-22T16:13:28.731Z,94935.16
2018-08-22T16:16:00.392Z,94934.58
2018-08-22T16:18:31.047Z,94939.31
2018-08-22T16:21:01.686Z,94937.52
2018-08-22T16:23:33.239Z,94940.48
2018-08-22T16:26:03.339Z,94929.67
2018-08-22T16:28:51.036Z,94933.47
2018-08-22T16:31:20.789Z,94933.28
2018-08-22T16:33:50.024Z,94925.04
2018-08-22T16:36:24.508Z,94927.73
2018-08-22T16:38:53.874Z,94933.99
2018-08-22T16:41:23.121Z,94932.70
2018-08-22T16:43:52.363Z,94940.20
2018-08-22T16:46:21.614Z,94937.58
2018-08-22T16:48:53.532Z,94943.41
2018-08-22T16:51:23.564Z,94934.47
2018-08-22T16:53:59.493Z,94939.09
2018-08-22T16:56:29.984Z,94941.41
2018-08-22T16:59:03.293Z,94941.85
2018-08-22T17:01:32.588Z,94937.02
2018-08-22T17:04:01.835Z,94940.12
2018-08-22T17:06:31.077Z,94941.56
2018-08-22T17:09:00.622Z,94941.91
2018-08-22T17:11:29.871Z,94939.77
2018-08-22T17:13:59.120Z,94941.19
2018-08-22T17:16:28.359Z,94946.16
2018-08-22T17:18:57.655Z,94943.45
2018-08-22T17:21:26.889Z,94945.88
2018-08-22T17:23:56.169Z,94942.31
2018-08-22T17:26:25.623Z,94945.09
2018-08-22T17:28:56.652Z,94949.66
2018-08-22T17:31:27.325Z,94951.61
2018-08-22T17:33:59.674Z,94956.83
2018-08-22T17:36:28.939Z,94954.15
2018-08-22T17:39:00.449Z,94950.90
2018-08-22T17:41:30.476Z,94955.00
2018-08-22T17:44:11.883Z,94955.25
2018-08-22T17:46:44.975Z,94952.94
2018-08-22T17:49:14.231Z,94952.12
2018-08-22T17:52:03.310Z,94954.56
2018-08-22T17:54:32.570Z,94953.74
2018-08-22T17:57:16.779Z,94962.03
2018-08-22T17:59:46.024Z,94958.29
2018-08-22T18:02:15.269Z,94966.16
2018-08-22T18:05:00.037Z,94964.56
2018-08-22T18:07:29.320Z,94969.24
2018-08-22T18:09:58.571Z,94967.38
2018-08-22T18:12:28.452Z,94967.86
2018-08-22T18:14:59.420Z,94967.58
2018-08-22T18:17:28.695Z,94972.48
2018-08-22T18:19:57.948Z,94977.30
2018-08-22T18:22:31.581Z,94977.81
2018-08-22T18:25:00.808Z,94980.68
2018-08-22T18:27:30.086Z,94984.70
2018-08-22T18:29:59.291Z,94983.25
2018-08-22T18:32:28.537Z,94980.75
2018-08-22T18:35:09.789Z,94979.39
2018-08-22T18:37:39.566Z,94982.28
2018-08-22T18:40:17.415Z,94981.16
2018-08-22T18:42:51.213Z,94987.66
2018-08-22T18:45:20.952Z,94984.02
2018-08-22T18:47:50.214Z,94986.84
2018-08-22T18:50:19.705Z,94991.84
2018-08-22T18:52:51.470Z,94998.33
2018-08-22T18:55:25.304Z,94991.16
2018-08-22T18:57:55.188Z,94988.73
2018-08-22T19:00:24.997Z,94991.63
2018-08-22T19:02:55.616Z,94989.83
2018-08-22T19:05:31.447Z,94991.75
2018-08-22T19:08:17.781Z,94997.91
2018-08-22T19:10:49.922Z,95000.46
2018-08-22T19:13:21.259Z,95003.55
2018-08-22T19:15:53.905Z,95002.29
2018-08-22T19:18:23.182Z,94997.92
2018-08-22T19:20:55.286Z,95002.05
2018-08-22T19:23:24.625Z,94998.23
2018-08-22T19:25:54.437Z,94999.69
2018-08-22T19:28:23.700Z,95000.09
2018-08-22T19:30:52.957Z,95008.84
2018-08-22T19:33:24.203Z,95011.42
2018-08-22T19:35:53.685Z,95016.96
2018-08-22T19:38:25.023Z,95016.28
2018-08-22T19:40:54.419Z,95011.47
2018-08-22T19:43:23.717Z,95013.68
2018-08-22T19:45:52.901Z,95019.70
2018-08-22T19:48:22.357Z,95015.77
2018-08-22T19:50:51.599Z,95017.25
2018-08-22T19:53:21.544Z,95022.67
2018-08-22T19:55:50.806Z,95022.25
2018-08-22T19:58:28.008Z,95028.30
2018-08-22T20:00:58.535Z,95024.02
2018-08-22T20:03:32.070Z,95026.70
2018-08-22T20:06:01.296Z,95025.66
2018-08-22T20:08:38.628Z,95030.88
2018-08-22T20:11:08.186Z,95030.88
2018-08-22T20:13:50.408Z,95036.97
2018-08-22T20:16:20.845Z,95034.97
2018-08-22T20:18:55.073Z,95038.20
2018-08-22T20:21:32.296Z,95038.74
2018-08-22T20:24:02.429Z,95041.48
2018-08-22T20:26:32.158Z,95039.59
2018-08-22T20:29:02.519Z,95038.00
2018-08-22T20:31:32.121Z,95035.01
2018-08-22T20:34:15.715Z,95034.71
2018-08-22T20:36:46.735Z,95032.64
2018-08-22T20:39:16.164Z,95028.45
2018-08-22T20:41:45.627Z,95025.09
2018-08-22T20:44:20.713Z,95030.13
2018-08-22T20:46:50.363Z,95026.17
2018-08-22T20:49:20.618Z,95022.99
2018-08-22T20:51:49.918Z,95031.45
2018-08-22T20:54:21.760Z,95029.19
2018-08-22T20:56:56.032Z,95043.31
2018-08-22T20:59:25.301Z,95039.62
2018-08-22T21:02:04.415Z,95031.39
2018-08-22T21:04:34.192Z,95032.29
2018-08-22T21:07:03.768Z,95028.09
2018-08-22T21:09:33.224Z,95034.93
2018-08-22T21:12:02.464Z,95039.44
2018-08-22T21:14:31.781Z,95033.75
2018-08-22T21:17:01.039Z,95035.62
2018-08-22T21:19:30.235Z,95037.86
2018-08-22T21:21:59.599Z,95033.20
2018-08-22T21:24:28.859Z,95038.40
2018-08-22T21:26:58.091Z,95035.66
2018-08-22T21:29:27.363Z,95037.52
2018-08-22T21:31:56.612Z,95034.64
2018-08-22T21:34:25.855Z,95033.75
2018-08-22T21:36:55.090Z,95039.53
2018-08-22T21:39:25.564Z,95039.85
2018-08-22T21:41:54.964Z,95030.35
2018-08-22T21:44:24.508Z,95034.59
2018-08-22T21:46:59.975Z,95040.68
2018-08-22T21:49:29.627Z,95038.25
2018-08-22T21:52:00.521Z,95034.27
2018-08-22T21:54:30.357Z,95036.06
2018-08-22T21:56:59.627Z,95035.98
2018-08-22T21:59:29.196Z,95028.83
2018-08-22T22:02:03.668Z,95034.09
2018-08-22T22:04:32.919Z,95035.42
2018-08-22T22:07:02.752Z,95033.60
2018-08-22T22:09:32.007Z,95026.89
2018-08-22T22:12:02.006Z,95030.23
2018-08-22T22:14:34.004Z,95033.95
2018-08-22T22:17:03.966Z,95033.30
2018-08-22T22:19:34.415Z,95032.98
2018-08-22T22:22:04.092Z,95037.49
2018-08-22T22:24:34.158Z,95034.77
2018-08-22T22:27:03.398Z,95033.44
2018-08-22T22:29:33.490Z,95034.84
2018-08-22T22:32:02.752Z,95033.05
2018-08-22T22:34:31.994Z,95026.54
2018-08-22T22:37:01.228Z,95030.14
2018-08-22T22:39:40.760Z,95026.98
2018-08-22T22:42:42.971Z,95023.73
2018-08-22T22:45:12.208Z,95026.30
2018-08-22T22:47:41.475Z,95027.55
2018-08-22T22:50:10.719Z,95032.98
2018-08-22T22:52:45.059Z,95035.00
2018-08-22T22:55:14.504Z,95032.43
2018-08-22T22:57:44.446Z,95028.73
2018-08-22T23:00:15.288Z,95024.59
2018-08-22T23:02:45.324Z,95013.20
2018-08-22T23:05:14.574Z,95019.02
2018-08-22T23:07:43.839Z,95014.39
2018-08-22T23:10:14.174Z,95018.46
2018-08-22T23:12:45.372Z,95018.16
2018-08-22T23:15:18.900Z,95012.99
2018-08-22T23:17:50.738Z,95017.84
2018-08-22T23:20:24.438Z,95015.64
2018-08-22T23:22:53.752Z,95020.17
2018-08-22T23:25:23.319Z,95013.93
2018-08-22T23:27:52.572Z,95014.17
2018-08-22T23:30:37.008Z,95012.88
2018-08-22T23:33:07.119Z,95007.64
2018-08-22T23:35:36.911Z,95011.97
2018-08-22T23:38:09.390Z,95010.13
2018-08-22T23:40:40.159Z,95012.05
2018-08-22T23:43:09.395Z,95007.17
2018-08-22T23:45:38.663Z,95003.61
2018-08-22T23:48:07.919Z,95005.94
2018-08-22T23:50:49.388Z,94999.19
2018-08-22T23:53:18.619Z,94999.45
2018-08-22T23:55:47.871Z,95002.02
2018-08-22T23:58:17.161Z,94998.94
